Terminal Aerodrome Forecast
Issued by NWS

Home | Current Version | Previous Version | Text Only | Print | Product List | Glossary On
Versions: 1 2 3 4 5 6 7 8 9 10 11 12 13 14 15 16 17 18 19 20
000
FTUS46 KOTX 211741
TAFPUW
TAF
KPUW 211741Z 2118/2218 10011KT P6SM SCT120 OVC200
     FM212300 13013KT P6SM VCSH BKN070 OVC110
     FM220000 15013KT P6SM -RA BKN025 OVC050
     FM220300 17015G21KT P6SM SCT030 BKN050
      TEMPO 2203/2206 -SHRA BKN030
     FM220700 23007KT P6SM SCT008 BKN100
     FM221000 23006KT P6SM SCT004 OVC012=

USA.gov is the U.S. government's official web portal to all federal, state and local government web resources and services.